Time;durP1;ratioP1;P1;durP2;ratioP2;P2;SDS_P1;SDS_P2;PMS_P1;PMS_P2;Temp;Humidity;BMP_temperature;BMP_pressure;BME280_temperature;BME280_humidity;BME280_pressure;Samples;Min_cycle;Max_cycle;Signal;HPM_P1;HPM_P2
2021/05/16 00:00:50;;;;;;;21.20;11.52;;;9.60;99.90;;;;;;6064147;23;20012;-87
2021/05/16 00:03:17;;;;;;;19.08;12.18;;;9.60;99.90;;;;;;6062304;23;20007;-88
2021/05/16 00:05:46;;;;;;;19.30;12.25;;;9.60;99.90;;;;;;6062887;23;20343;-86
2021/05/16 00:08:14;;;;;;;22.30;12.45;;;9.50;99.90;;;;;;6076931;23;20082;-87
2021/05/16 00:10:41;;;;;;;21.20;12.98;;;9.50;99.90;;;;;;6074524;23;20479;-86
2021/05/16 00:13:10;;;;;;;24.40;13.85;;;9.60;99.90;;;;;;6072916;23;20026;-86
2021/05/16 00:15:37;;;;;;;25.40;13.68;;;9.60;99.90;;;;;;6071638;23;20392;-87
2021/05/16 00:18:04;;;;;;;24.65;12.95;;;9.60;99.90;;;;;;6076355;23;20057;-87
2021/05/16 00:20:33;;;;;;;22.63;13.45;;;9.70;99.90;;;;;;6071801;23;20063;-87
2021/05/16 00:23:00;;;;;;;27.50;14.98;;;9.80;99.90;;;;;;6074320;23;20034;-86
2021/05/16 00:25:28;;;;;;;23.50;13.98;;;9.90;99.90;;;;;;6076330;23;20102;-87
2021/05/16 00:27:55;;;;;;;26.55;14.52;;;9.90;99.90;;;;;;6074803;23;20396;-87
2021/05/16 00:30:27;;;;;;;20.30;12.93;;;9.90;99.90;;;;;;6073617;23;20364;-88
2021/05/16 00:32:58;;;;;;;27.00;14.98;;;10.00;99.90;;;;;;6076482;23;20054;-87
2021/05/16 00:35:28;;;;;;;26.15;14.15;;;9.90;99.90;;;;;;6083470;23;20022;-87
2021/05/16 00:37:56;;;;;;;26.83;14.10;;;9.90;99.90;;;;;;6076471;23;20026;-87
2021/05/16 00:40:23;;;;;;;27.02;15.10;;;9.80;99.90;;;;;;6073535;23;20058;-88
2021/05/16 00:42:54;;;;;;;26.23;14.52;;;9.80;99.90;;;;;;6036112;23;20033;-87
2021/05/16 00:45:24;;;;;;;25.17;14.02;;;9.80;99.90;;;;;;6062470;23;20034;-86
2021/05/16 00:47:57;;;;;;;25.63;14.27;;;9.70;99.90;;;;;;6075397;23;20022;-87
2021/05/16 00:50:36;;;;;;;29.27;14.45;;;9.70;99.90;;;;;;6078187;23;20452;-86
2021/05/16 00:53:03;;;;;;;31.05;16.13;;;9.60;99.90;;;;;;6075480;23;20129;-88
2021/05/16 00:55:30;;;;;;;25.42;14.55;;;9.60;99.90;;;;;;6074310;23;20029;-87
2021/05/16 00:57:57;;;;;;;34.88;15.73;;;9.50;99.90;;;;;;6075957;23;20025;-87
2021/05/16 01:00:39;;;;;;;30.33;15.48;;;9.50;99.90;;;;;;6077596;23;20081;-87
2021/05/16 01:03:07;;;;;;;27.45;14.80;;;9.40;99.90;;;;;;6076177;23;20339;-87
2021/05/16 01:05:35;;;;;;;33.45;16.88;;;9.50;99.90;;;;;;6074993;23;20057;-86
2021/05/16 01:08:04;;;;;;;34.33;16.10;;;9.40;99.90;;;;;;6075610;23;20093;-88
2021/05/16 01:10:32;;;;;;;34.00;16.77;;;9.50;99.90;;;;;;6067567;23;20022;-87
2021/05/16 01:13:06;;;;;;;34.97;17.33;;;9.40;99.90;;;;;;6060580;23;20023;-87
2021/05/16 01:15:33;;;;;;;39.85;17.27;;;9.40;99.90;;;;;;6087035;23;20026;-87
2021/05/16 01:18:01;;;;;;;32.33;16.48;;;9.40;99.90;;;;;;6074658;23;20093;-87
2021/05/16 01:20:32;;;;;;;32.10;17.63;;;9.40;99.90;;;;;;6076200;23;20087;-87
2021/05/16 01:23:05;;;;;;;44.40;18.25;;;9.40;99.90;;;;;;6074431;23;20027;-87
2021/05/16 01:25:35;;;;;;;42.63;18.03;;;9.40;99.90;;;;;;6074080;23;20018;-87
2021/05/16 01:28:06;;;;;;;38.53;17.63;;;9.40;99.90;;;;;;6073971;23;20034;-88
2021/05/16 01:30:34;;;;;;;39.10;17.95;;;9.40;99.90;;;;;;6072121;23;20038;-87
2021/05/16 01:33:03;;;;;;;40.38;17.58;;;9.40;99.90;;;;;;6074075;23;20054;-87
2021/05/16 01:35:31;;;;;;;45.45;17.58;;;9.40;99.90;;;;;;6074713;23;20058;-87
2021/05/16 01:37:58;;;;;;;39.05;17.45;;;9.40;99.90;;;;;;6073848;23;20027;-87
2021/05/16 01:40:26;;;;;;;53.47;19.70;;;9.40;99.90;;;;;;6073332;23;20054;-88
2021/05/16 01:42:55;;;;;;;44.17;18.27;;;9.40;99.90;;;;;;6073649;23;20018;-87
2021/05/16 01:45:25;;;;;;;42.45;17.90;;;9.40;99.90;;;;;;6062219;23;20053;-87
2021/05/16 01:47:53;;;;;;;46.35;19.90;;;9.40;99.90;;;;;;6065563;23;20031;-87
2021/05/16 01:50:24;;;;;;;50.38;19.35;;;9.40;99.90;;;;;;6078009;23;20046;-87
2021/05/16 01:52:51;;;;;;;41.05;17.60;;;9.30;99.90;;;;;;6073933;23;20347;-87
2021/05/16 01:55:19;;;;;;;39.97;17.15;;;9.30;99.90;;;;;;6072832;23;20054;-88
2021/05/16 01:57:47;;;;;;;46.50;18.90;;;9.40;99.90;;;;;;6075772;23;20053;-86
2021/05/16 02:00:35;;;;;;;41.15;18.30;;;9.30;99.90;;;;;;6074450;23;20101;-87
2021/05/16 02:03:03;;;;;;;51.33;19.10;;;9.30;99.90;;;;;;6062269;23;20034;-87
2021/05/16 02:05:31;;;;;;;47.85;18.92;;;9.30;99.90;;;;;;6065653;23;20027;-87
2021/05/16 02:07:58;;;;;;;49.75;18.88;;;9.30;99.90;;;;;;6076163;23;20030;-87
2021/05/16 02:10:26;;;;;;;53.17;18.52;;;9.30;99.90;;;;;;6078039;23;20022;-87
2021/05/16 02:12:53;;;;;;;47.95;19.02;;;9.40;99.90;;;;;;6092901;23;20027;-87
2021/05/16 02:15:20;;;;;;;52.05;20.42;;;9.40;99.90;;;;;;6096336;23;20010;-87
2021/05/16 02:17:48;;;;;;;39.00;18.50;;;9.50;99.90;;;;;;6087681;23;20041;-87
2021/05/16 02:20:17;;;;;;;49.28;20.35;;;9.50;99.90;;;;;;6080260;23;20027;-87
2021/05/16 02:22:44;;;;;;;53.20;20.05;;;9.60;99.90;;;;;;6077959;23;20053;-86
2021/05/16 02:25:12;;;;;;;50.25;21.40;;;9.60;99.90;;;;;;6075468;23;20038;-87
2021/05/16 02:27:40;;;;;;;54.40;20.60;;;9.70;99.90;;;;;;6079451;23;20031;-86
2021/05/16 02:30:09;;;;;;;44.72;18.38;;;9.70;99.90;;;;;;6078488;23;20025;-86
2021/05/16 02:32:37;;;;;;;50.38;20.48;;;9.80;99.90;;;;;;6073822;23;20050;-87
2021/05/16 02:35:06;;;;;;;50.15;19.95;;;9.80;99.90;;;;;;6073543;23;20050;-87
2021/05/16 02:37:33;;;;;;;45.42;19.38;;;9.90;99.90;;;;;;6074663;23;20027;-86
2021/05/16 02:40:00;;;;;;;50.08;20.27;;;9.90;99.90;;;;;;6072753;23;20029;-89
2021/05/16 02:42:27;;;;;;;47.97;20.00;;;9.90;99.90;;;;;;6085923;23;20508;-87
2021/05/16 02:44:53;;;;;;;59.47;19.73;;;9.90;99.90;;;;;;6090871;23;20074;-88
2021/05/16 02:47:20;;;;;;;48.35;20.65;;;9.90;99.90;;;;;;6049795;23;20022;-87
2021/05/16 02:49:47;;;;;;;57.15;20.08;;;9.90;99.90;;;;;;6090202;23;20107;-87
2021/05/16 02:52:15;;;;;;;51.90;19.85;;;9.90;99.90;;;;;;6090376;23;20157;-87
2021/05/16 02:54:43;;;;;;;57.40;21.42;;;9.90;99.90;;;;;;6081922;23;20021;-87
2021/05/16 02:57:10;;;;;;;55.33;21.25;;;9.90;99.90;;;;;;6086054;23;20028;-86
2021/05/16 02:59:37;;;;;;;55.95;20.13;;;10.00;99.90;;;;;;6081863;23;20200;-88
2021/05/16 03:02:04;;;;;;;53.20;20.83;;;10.00;99.90;;;;;;6090292;23;20098;-87
2021/05/16 03:04:31;;;;;;;44.83;20.08;;;10.00;99.90;;;;;;6090674;23;20026;-87
2021/05/16 03:06:57;;;;;;;49.08;21.23;;;10.00;99.90;;;;;;6089802;23;20018;-87
2021/05/16 03:09:26;;;;;;;54.70;21.75;;;10.00;99.90;;;;;;6089935;23;20022;-89
2021/05/16 03:11:53;;;;;;;53.13;21.02;;;10.00;99.90;;;;;;6085874;23;20034;-86
2021/05/16 03:14:20;;;;;;;59.75;22.60;;;10.00;99.90;;;;;;6091490;23;20396;-87
2021/05/16 03:16:47;;;;;;;51.25;21.90;;;10.00;99.90;;;;;;6086385;23;20462;-88
2021/05/16 03:19:13;;;;;;;54.30;21.23;;;10.00;99.90;;;;;;6089971;23;20018;-87
2021/05/16 03:21:40;;;;;;;51.58;21.67;;;10.00;99.90;;;;;;6090062;23;20050;-87
2021/05/16 03:24:07;;;;;;;54.92;22.17;;;10.10;99.90;;;;;;6091971;23;20073;-87
2021/05/16 03:26:34;;;;;;;55.13;20.65;;;10.00;99.90;;;;;;6088524;23;20447;-87
2021/05/16 03:29:04;;;;;;;50.05;19.60;;;10.10;99.90;;;;;;6088501;23;20018;-87
2021/05/16 03:31:31;;;;;;;43.13;20.23;;;10.10;99.90;;;;;;6091794;23;20425;-88
2021/05/16 03:33:57;;;;;;;48.63;19.50;;;10.10;99.90;;;;;;6096965;23;20014;-88
2021/05/16 03:36:24;;;;;;;49.88;20.13;;;10.20;99.90;;;;;;6097766;23;20128;-87
2021/05/16 03:38:51;;;;;;;42.30;18.33;;;10.20;99.90;;;;;;6099374;23;20021;-88
2021/05/16 03:41:18;;;;;;;33.33;17.20;;;10.20;99.90;;;;;;6096525;23;20041;-87
2021/05/16 03:43:45;;;;;;;43.92;18.80;;;10.20;99.90;;;;;;6096189;23;20049;-87
2021/05/16 03:46:12;;;;;;;36.50;17.83;;;10.20;99.90;;;;;;6091562;23;20446;-86
2021/05/16 03:48:39;;;;;;;46.45;16.40;;;10.30;99.90;;;;;;6094245;23;20084;-86
2021/05/16 03:51:06;;;;;;;33.90;17.10;;;10.30;99.90;;;;;;6093007;23;20026;-88
2021/05/16 03:53:34;;;;;;;38.90;15.98;;;10.20;99.90;;;;;;6081228;23;20026;-87
2021/05/16 03:56:01;;;;;;;49.08;17.67;;;10.30;99.90;;;;;;6094750;23;20021;-87
2021/05/16 03:58:30;;;;;;;41.00;16.73;;;10.30;99.90;;;;;;6092945;23;20041;-88
2021/05/16 04:00:57;;;;;;;45.72;18.25;;;10.30;99.90;;;;;;6096447;23;20117;-86
2021/05/16 04:03:24;;;;;;;38.45;17.10;;;10.30;99.90;;;;;;6094808;23;20343;-88
2021/05/16 04:05:51;;;;;;;42.78;17.73;;;10.30;99.90;;;;;;6093945;23;20462;-87
2021/05/16 04:08:18;;;;;;;39.38;17.92;;;10.40;99.90;;;;;;6094975;23;20034;-87
2021/05/16 04:10:45;;;;;;;36.00;17.60;;;10.40;99.90;;;;;;6096862;23;20052;-87
2021/05/16 04:13:11;;;;;;;45.22;18.20;;;10.40;99.90;;;;;;6094769;23;20113;-87
2021/05/16 04:15:38;;;;;;;40.15;16.88;;;10.30;99.90;;;;;;6093701;23;20006;-87
2021/05/16 04:18:05;;;;;;;37.40;16.50;;;10.40;99.90;;;;;;6094771;23;20032;-87
2021/05/16 04:20:32;;;;;;;40.38;17.15;;;10.40;99.90;;;;;;6103053;23;20026;-87
2021/05/16 04:22:59;;;;;;;38.90;16.70;;;10.40;99.90;;;;;;6110639;23;20002;-87
2021/05/16 04:25:28;;;;;;;52.28;18.05;;;10.40;99.90;;;;;;6113028;23;20030;-87
2021/05/16 04:27:55;;;;;;;46.15;16.73;;;10.50;99.90;;;;;;6098939;23;20045;-86
2021/05/16 04:30:22;;;;;;;46.55;19.95;;;10.50;99.90;;;;;;6113237;23;20002;-88
2021/05/16 04:32:49;;;;;;;48.33;19.10;;;10.50;99.90;;;;;;6108834;23;20014;-87
2021/05/16 04:35:16;;;;;;;45.90;18.63;;;10.50;99.90;;;;;;6101477;23;20073;-88
2021/05/16 04:37:43;;;;;;;44.35;17.55;;;10.60;99.90;;;;;;6099914;23;20022;-87
2021/05/16 04:40:10;;;;;;;39.58;17.77;;;10.60;99.90;;;;;;6097847;23;20017;-88
2021/05/16 04:42:37;;;;;;;40.28;16.50;;;10.60;99.90;;;;;;6094194;23;20034;-87
2021/05/16 04:45:05;;;;;;;36.78;15.25;;;10.70;99.90;;;;;;6096592;23;20351;-87
2021/05/16 04:47:31;;;;;;;29.52;13.18;;;10.70;99.90;;;;;;6095402;23;20022;-87
2021/05/16 04:49:58;;;;;;;33.58;13.52;;;10.80;99.90;;;;;;6094421;23;20016;-89
2021/05/16 04:52:25;;;;;;;44.55;14.10;;;10.80;99.90;;;;;;6093819;23;20047;-88
2021/05/16 04:54:52;;;;;;;33.92;13.93;;;10.90;99.90;;;;;;6119608;23;20025;-89
2021/05/16 04:57:18;;;;;;;35.17;14.05;;;10.90;99.90;;;;;;6093655;23;20098;-88
2021/05/16 04:59:51;;;;;;;38.33;15.13;;;10.80;99.90;;;;;;6093008;23;20022;-89
2021/05/16 05:02:19;;;;;;;42.10;16.75;;;10.70;99.90;;;;;;6095069;23;20061;-87
2021/05/16 05:04:45;;;;;;;46.85;16.65;;;10.70;99.90;;;;;;6096094;23;20455;-88
2021/05/16 05:07:13;;;;;;;59.35;17.33;;;10.60;99.90;;;;;;6095152;23;20022;-88
2021/05/16 05:09:40;;;;;;;42.08;16.60;;;10.50;99.90;;;;;;6096520;23;20363;-88
2021/05/16 05:12:07;;;;;;;53.00;17.42;;;10.50;99.90;;;;;;6084573;23;20613;-89
2021/05/16 05:14:34;;;;;;;51.97;17.77;;;10.50;99.90;;;;;;6073529;23;20018;-88
2021/05/16 05:17:01;;;;;;;55.97;18.33;;;10.50;99.90;;;;;;6095297;23;20092;-88
2021/05/16 05:19:27;;;;;;;60.13;18.17;;;10.50;99.90;;;;;;6095616;23;20025;-88
2021/05/16 05:21:54;;;;;;;51.08;17.45;;;10.60;99.90;;;;;;6096492;23;20022;-88
2021/05/16 05:24:23;;;;;;;49.00;17.38;;;10.50;99.90;;;;;;6097639;23;20018;-88
2021/05/16 05:26:50;;;;;;;51.45;17.25;;;10.60;99.90;;;;;;6095493;23;20052;-87
2021/05/16 05:29:17;;;;;;;44.60;17.67;;;10.60;99.90;;;;;;6098303;23;20112;-85
2021/05/16 05:31:46;;;;;;;50.30;15.90;;;10.60;99.90;;;;;;6098810;23;20081;-85
2021/05/16 05:34:13;;;;;;;41.60;16.63;;;10.60;99.90;;;;;;6099361;23;20125;-85
2021/05/16 05:36:40;;;;;;;49.38;16.67;;;10.70;99.90;;;;;;6101710;23;20085;-85
2021/05/16 05:39:08;;;;;;;48.70;15.20;;;10.70;99.90;;;;;;6102689;23;20037;-85
2021/05/16 05:41:35;;;;;;;51.33;15.45;;;10.70;99.90;;;;;;6112561;23;20025;-85
2021/05/16 05:44:02;;;;;;;37.35;15.23;;;10.80;99.90;;;;;;6113784;23;20006;-86
2021/05/16 05:46:29;;;;;;;39.50;14.65;;;10.80;99.90;;;;;;6113028;23;20028;-86
2021/05/16 05:48:56;;;;;;;45.88;14.32;;;10.80;99.90;;;;;;6113645;23;20025;-86
2021/05/16 05:51:23;;;;;;;37.55;13.45;;;10.80;99.90;;;;;;6111132;23;20026;-89
2021/05/16 05:53:49;;;;;;;62.30;15.80;;;10.70;99.90;;;;;;6114083;23;20017;-87
2021/05/16 05:56:16;;;;;;;42.38;14.23;;;10.70;99.90;;;;;;6112197;23;20025;-87
2021/05/16 05:58:43;;;;;;;41.35;14.85;;;10.70;99.90;;;;;;6111557;23;20018;-87
2021/05/16 06:01:10;;;;;;;41.67;13.65;;;10.60;99.90;;;;;;6095683;23;20030;-87
2021/05/16 06:03:36;;;;;;;37.83;13.57;;;10.60;99.90;;;;;;6094900;23;20073;-87
2021/05/16 06:06:03;;;;;;;40.78;14.05;;;10.60;99.90;;;;;;6094228;23;20077;-86
2021/05/16 06:08:30;;;;;;;29.73;12.75;;;10.60;99.90;;;;;;6093520;23;20628;-88
2021/05/16 06:10:57;;;;;;;39.88;12.55;;;10.70;99.90;;;;;;6093171;23;20041;-86
2021/05/16 06:13:23;;;;;;;34.88;13.68;;;10.80;99.90;;;;;;6094256;23;20996;-87
2021/05/16 06:15:50;;;;;;;36.72;13.43;;;10.90;99.90;;;;;;6092641;23;20339;-87
2021/05/16 06:18:17;;;;;;;40.33;11.82;;;11.00;99.90;;;;;;6095101;23;20026;-87
2021/05/16 06:20:44;;;;;;;33.15;13.77;;;11.20;99.90;;;;;;6094349;23;20085;-87
2021/05/16 06:23:13;;;;;;;37.92;11.82;;;11.40;99.90;;;;;;6092197;23;20057;-86
2021/05/16 06:25:44;;;;;;;34.83;12.40;;;11.40;99.90;;;;;;6090015;23;20261;-87
2021/05/16 06:28:11;;;;;;;45.72;12.10;;;11.50;99.90;;;;;;6090946;23;20422;-87
2021/05/16 06:30:38;;;;;;;28.27;9.50;;;11.40;99.90;;;;;;6092301;23;20473;-88
2021/05/16 06:33:05;;;;;;;29.40;10.75;;;11.30;99.90;;;;;;6092180;23;20022;-88
2021/05/16 06:35:32;;;;;;;35.03;9.98;;;11.30;99.90;;;;;;6077640;23;20022;-86
2021/05/16 06:37:59;;;;;;;24.63;8.95;;;11.20;99.90;;;;;;6092656;23;20126;-87
2021/05/16 06:40:26;;;;;;;24.45;9.98;;;11.20;99.90;;;;;;6078070;23;20085;-87
2021/05/16 06:42:54;;;;;;;36.63;10.20;;;11.20;99.90;;;;;;6092742;23;20018;-87
2021/05/16 06:45:20;;;;;;;27.92;9.45;;;11.30;99.90;;;;;;6081620;23;20028;-87
2021/05/16 06:47:47;;;;;;;29.63;9.38;;;11.40;99.90;;;;;;6094957;23;20022;-88
2021/05/16 06:50:16;;;;;;;26.00;9.05;;;11.40;99.90;;;;;;6102006;23;20034;-88
2021/05/16 06:52:43;;;;;;;30.02;9.13;;;11.30;99.90;;;;;;6091264;23;20022;-88
2021/05/16 06:55:11;;;;;;;26.58;8.57;;;11.20;99.90;;;;;;6090509;23;20359;-88
2021/05/16 06:57:39;;;;;;;27.10;9.52;;;11.20;99.90;;;;;;6077888;23;20018;-88
2021/05/16 07:00:07;;;;;;;19.67;8.23;;;11.20;99.90;;;;;;6095107;23;20060;-87
2021/05/16 07:02:34;;;;;;;32.35;9.70;;;11.10;99.90;;;;;;6093926;23;20048;-87
2021/05/16 07:05:02;;;;;;;28.02;9.25;;;11.10;99.90;;;;;;6092815;23;20022;-88
2021/05/16 07:07:28;;;;;;;24.45;8.68;;;11.10;99.90;;;;;;6092407;23;20029;-88
2021/05/16 07:09:58;;;;;;;21.85;8.40;;;11.10;99.90;;;;;;6076919;23;20025;-87
2021/05/16 07:12:27;;;;;;;23.50;9.20;;;11.00;99.90;;;;;;6091835;23;20069;-87
2021/05/16 07:14:54;;;;;;;31.98;9.00;;;11.10;99.90;;;;;;6093365;23;20022;-87
2021/05/16 07:17:21;;;;;;;26.58;8.45;;;11.10;99.90;;;;;;6115492;23;20046;-87
2021/05/16 07:19:47;;;;;;;19.95;8.48;;;11.10;99.90;;;;;;6093274;23;20069;-87
2021/05/16 07:22:14;;;;;;;22.70;9.70;;;11.10;99.90;;;;;;6092509;23;20022;-87
2021/05/16 07:24:41;;;;;;;22.83;8.57;;;11.10;99.90;;;;;;6092308;23;20101;-88
2021/05/16 07:27:09;;;;;;;28.67;8.65;;;11.10;99.90;;;;;;6094677;23;20026;-87
2021/05/16 07:29:35;;;;;;;12.07;6.20;;;11.00;99.90;;;;;;6092511;23;20049;-88
2021/05/16 07:32:02;;;;;;;23.50;7.65;;;11.00;99.90;;;;;;6089558;23;20042;-88
2021/05/16 07:34:29;;;;;;;21.92;6.97;;;11.00;99.90;;;;;;6093901;23;20062;-88
2021/05/16 07:36:56;;;;;;;18.65;7.30;;;11.00;99.90;;;;;;6093216;23;20033;-87
2021/05/16 07:39:23;;;;;;;14.10;7.85;;;11.10;99.90;;;;;;6079349;23;20026;-87
2021/05/16 07:41:50;;;;;;;16.02;6.80;;;11.20;99.90;;;;;;6092504;23;20529;-88
2021/05/16 07:44:17;;;;;;;17.80;6.20;;;11.40;99.90;;;;;;6093589;23;20048;-87
2021/05/16 07:46:43;;;;;;;14.75;5.60;;;11.60;99.90;;;;;;6093084;23;20062;-87
2021/05/16 07:49:10;;;;;;;14.88;5.18;;;11.70;99.90;;;;;;6081228;23;20025;-87
2021/05/16 07:51:37;;;;;;;14.00;5.40;;;11.80;99.90;;;;;;6067108;23;20022;-88
2021/05/16 07:54:04;;;;;;;18.63;5.28;;;12.00;99.90;;;;;;6091801;23;20097;-86
2021/05/16 07:56:32;;;;;;;16.65;4.50;;;12.30;99.90;;;;;;6092271;23;20026;-88
2021/05/16 07:59:00;;;;;;;10.98;3.58;;;12.60;99.90;;;;;;6092759;23;20028;-86
2021/05/16 08:01:27;;;;;;;15.13;4.18;;;12.90;99.90;;;;;;6074067;23;20034;-87
2021/05/16 08:03:53;;;;;;;8.27;2.97;;;13.00;99.90;;;;;;6085669;23;20481;-86
2021/05/16 08:06:20;;;;;;;5.95;3.25;;;13.00;99.90;;;;;;6089665;23;20123;-87
2021/05/16 08:08:47;;;;;;;9.15;3.28;;;12.90;99.90;;;;;;6099939;23;20482;-86
2021/05/16 08:11:14;;;;;;;11.15;3.30;;;12.90;99.90;;;;;;6091704;23;20052;-86
2021/05/16 08:13:46;;;;;;;12.65;3.40;;;12.80;99.90;;;;;;6094131;23;20092;-87
2021/05/16 08:16:14;;;;;;;11.85;3.78;;;12.80;99.90;;;;;;6118869;23;20046;-86
2021/05/16 08:18:40;;;;;;;13.65;3.28;;;12.70;99.90;;;;;;6084039;23;20032;-87
2021/05/16 08:21:07;;;;;;;9.88;3.80;;;12.80;99.90;;;;;;6090351;23;20522;-87
2021/05/16 08:23:34;;;;;;;9.88;2.90;;;13.00;99.90;;;;;;6092410;23;20041;-87
2021/05/16 08:26:01;;;;;;;7.95;2.30;;;13.10;99.90;;;;;;6092385;23;20072;-87
2021/05/16 08:28:28;;;;;;;14.63;3.60;;;13.10;99.90;;;;;;6092911;23;20046;-87
2021/05/16 08:30:55;;;;;;;13.43;2.97;;;12.90;99.90;;;;;;6092834;23;20009;-87
2021/05/16 08:33:22;;;;;;;11.55;2.13;;;12.60;99.90;;;;;;6093202;23;20029;-87
2021/05/16 08:35:49;;;;;;;3.70;2.17;;;12.30;99.90;;;;;;6092486;23;20088;-87
2021/05/16 08:38:16;;;;;;;4.13;1.58;;;12.10;99.90;;;;;;6091877;23;20029;-87
2021/05/16 08:40:43;;;;;;;6.63;2.45;;;11.90;99.90;;;;;;6091443;23;20033;-87
2021/05/16 08:43:10;;;;;;;10.27;2.78;;;11.70;99.90;;;;;;6092310;23;20026;-87
2021/05/16 08:45:37;;;;;;;9.38;2.00;;;11.80;99.90;;;;;;6117109;23;20040;-87
2021/05/16 08:48:07;;;;;;;4.28;2.00;;;11.90;99.90;;;;;;6092747;23;20112;-87
2021/05/16 08:50:35;;;;;;;8.88;2.08;;;12.10;99.90;;;;;;6092275;23;20386;-87
2021/05/16 08:53:02;;;;;;;8.65;3.30;;;12.30;99.90;;;;;;6092627;23;20025;-87
2021/05/16 08:55:29;;;;;;;10.13;2.47;;;12.40;99.90;;;;;;6053818;23;20026;-86
2021/05/16 08:57:56;;;;;;;14.35;3.50;;;12.40;99.90;;;;;;6092695;23;20407;-87
2021/05/16 09:00:26;;;;;;;10.18;3.47;;;12.40;99.90;;;;;;6079675;23;20026;-87
2021/05/16 09:03:10;;;;;;;4.80;1.70;;;12.30;99.90;;;;;;6079487;23;20054;-86
2021/05/16 09:05:40;;;;;;;3.35;1.33;;;12.10;99.90;;;;;;6092908;23;20041;-87
2021/05/16 09:08:12;;;;;;;8.55;1.92;;;11.80;99.90;;;;;;6078437;23;20052;-87
2021/05/16 09:10:44;;;;;;;7.18;2.08;;;11.60;99.90;;;;;;6114898;23;20415;-87
2021/05/16 09:13:18;;;;;;;5.55;2.38;;;11.30;99.90;;;;;;6090187;23;20475;-86
2021/05/16 09:16:10;;;;;;;8.35;2.78;;;11.20;99.90;;;;;;6091183;23;20025;-87
2021/05/16 09:18:51;;;;;;;10.98;3.33;;;11.10;99.90;;;;;;6091797;23;20026;-87
2021/05/16 09:21:28;;;;;;;11.77;3.28;;;11.00;99.90;;;;;;6116903;23;20047;-86
2021/05/16 09:24:06;;;;;;;10.40;3.63;;;10.90;99.90;;;;;;6092709;23;20022;-87
2021/05/16 09:26:34;;;;;;;5.82;2.42;;;11.00;99.90;;;;;;6090840;23;20034;-87
2021/05/16 09:29:21;;;;;;;12.95;3.88;;;11.10;99.90;;;;;;6117023;23;20049;-88
2021/05/16 09:31:50;;;;;;;10.18;3.63;;;11.20;99.90;;;;;;6087428;23;20023;-87
2021/05/16 09:34:17;;;;;;;10.80;3.92;;;11.50;99.90;;;;;;6087692;23;20085;-87
2021/05/16 09:36:48;;;;;;;8.20;2.67;;;11.90;99.90;;;;;;6089403;23;20018;-88
2021/05/16 09:39:18;;;;;;;6.93;2.30;;;12.30;99.90;;;;;;6062814;23;20018;-87
2021/05/16 09:41:59;;;;;;;5.75;1.65;;;12.80;99.90;;;;;;6086341;23;20070;-87
2021/05/16 09:44:30;;;;;;;5.50;0.98;;;13.20;99.90;;;;;;6043373;23;20029;-87
2021/05/16 09:47:15;;;;;;;1.98;0.80;;;13.40;99.90;;;;;;6088805;23;20034;-87
2021/05/16 09:49:47;;;;;;;2.58;0.82;;;13.70;99.90;;;;;;6088616;23;20536;-85
2021/05/16 09:52:31;;;;;;;3.63;1.58;;;13.70;99.90;;;;;;6081769;23;20041;-84
2021/05/16 09:55:10;;;;;;;5.65;1.20;;;13.50;99.90;;;;;;6090454;23;20030;-85
2021/05/16 09:57:41;;;;;;;3.33;0.63;;;13.10;99.90;;;;;;6090063;23;20010;-85
2021/05/16 10:00:14;;;;;;;2.15;0.82;;;12.80;99.90;;;;;;6089923;23;20518;-85
2021/05/16 10:02:41;;;;;;;2.17;0.90;;;12.60;99.90;;;;;;6067829;23;20089;-85
2021/05/16 10:05:10;;;;;;;3.42;1.45;;;12.60;99.90;;;;;;6090103;23;20022;-84
2021/05/16 10:07:38;;;;;;;5.07;1.70;;;12.50;99.90;;;;;;6089053;23;20498;-85
2021/05/16 10:10:07;;;;;;;11.02;1.98;;;12.60;99.90;;;;;;6090744;23;20054;-85
2021/05/16 10:12:36;;;;;;;4.55;1.30;;;12.80;99.90;;;;;;6091477;23;20022;-85
2021/05/16 10:15:24;;;;;;;1.92;0.90;;;13.10;99.90;;;;;;6089983;23;20447;-85
2021/05/16 10:17:55;;;;;;;4.05;1.20;;;13.20;99.90;;;;;;6090238;23;20018;-85
2021/05/16 10:20:25;;;;;;;7.40;2.33;;;13.20;99.90;;;;;;6090228;23;20108;-84
2021/05/16 10:23:00;;;;;;;5.53;1.85;;;13.30;99.90;;;;;;6088504;23;20045;-85
2021/05/16 10:25:41;;;;;;;9.57;2.17;;;13.40;99.90;;;;;;6041819;23;20030;-83
2021/05/16 10:28:11;;;;;;;9.25;2.47;;;13.50;99.90;;;;;;6093738;23;20023;-84
2021/05/16 10:30:41;;;;;;;6.43;2.15;;;13.50;99.90;;;;;;6089622;23;20026;-84
2021/05/16 10:33:31;;;;;;;5.90;2.38;;;13.60;99.90;;;;;;6101523;23;20013;-84
2021/05/16 10:35:58;;;;;;;8.02;2.78;;;13.60;99.90;;;;;;6093235;23;20477;-84
2021/05/16 10:38:38;;;;;;;5.18;2.20;;;13.70;99.90;;;;;;6093802;23;20160;-84
2021/05/16 10:41:23;;;;;;;10.68;3.13;;;13.70;99.90;;;;;;6093907;23;20025;-84
2021/05/16 10:43:50;;;;;;;8.93;2.92;;;14.00;99.90;;;;;;6093013;23;20080;-84
2021/05/16 10:46:36;;;;;;;5.53;1.98;;;14.70;99.90;;;;;;6093981;23;20470;-82
2021/05/16 10:49:21;;;;;;;5.43;2.40;;;15.30;99.90;;;;;;6088839;23;20481;-84
2021/05/16 10:51:48;;;;;;;3.95;2.08;;;15.60;99.90;;;;;;6091228;23;20059;-84
2021/05/16 10:54:34;;;;;;;3.00;1.13;;;15.60;99.90;;;;;;6092469;23;20386;-84
2021/05/16 10:57:23;;;;;;;1.10;0.30;;;15.60;99.90;;;;;;6090623;23;20014;-84
2021/05/16 10:59:51;;;;;;;3.75;1.27;;;15.60;99.90;;;;;;6092737;23;20342;-83
2021/05/16 11:02:55;;;;;;;3.97;0.80;;;15.60;99.90;;;;;;6093968;23;20414;-84
2021/05/16 11:05:44;;;;;;;5.43;1.30;;;15.70;99.90;;;;;;6079550;23;20021;-82
2021/05/16 11:08:20;;;;;;;10.15;2.38;;;15.80;99.90;;;;;;6093723;23;20021;-84
2021/05/16 11:10:49;;;;;;;5.85;1.90;;;15.70;99.90;;;;;;6079793;23;20516;-84
2021/05/16 11:13:27;;;;;;;3.72;1.67;;;15.50;99.90;;;;;;6096125;23;20068;-83
2021/05/16 11:16:04;;;;;;;5.70;1.80;;;15.20;99.90;;;;;;6095582;23;20394;-83
2021/05/16 11:18:31;;;;;;;9.25;2.10;;;15.10;99.90;;;;;;6095981;23;20026;-82
2021/05/16 11:21:00;;;;;;;2.58;1.00;;;14.80;99.90;;;;;;6075536;23;20434;-83
2021/05/16 11:23:29;;;;;;;2.15;0.80;;;14.60;99.90;;;;;;6094369;23;20462;-83
2021/05/16 11:26:20;;;;;;;3.60;0.77;;;14.60;99.90;;;;;;6095524;23;20022;-84
2021/05/16 11:28:49;;;;;;;1.77;0.70;;;14.50;99.90;;;;;;6095542;23;20041;-83
2021/05/16 11:31:20;;;;;;;2.63;0.77;;;14.50;99.90;;;;;;6095029;23;20506;-84
2021/05/16 11:33:52;;;;;;;3.90;0.82;;;14.60;99.90;;;;;;6094757;23;20009;-83
2021/05/16 11:36:22;;;;;;;3.65;0.68;;;14.70;99.90;;;;;;6096201;23;20021;-83
2021/05/16 11:38:53;;;;;;;2.63;0.80;;;14.70;99.90;;;;;;6081672;23;20029;-83
2021/05/16 11:41:43;;;;;;;3.20;1.50;;;14.60;99.90;;;;;;6095677;23;20022;-83
2021/05/16 11:44:11;;;;;;;5.15;1.75;;;14.50;99.90;;;;;;6120441;23;20062;-83
2021/05/16 11:46:45;;;;;;;2.97;0.82;;;14.50;99.90;;;;;;6096130;23;20029;-82
2021/05/16 11:49:15;;;;;;;2.92;1.08;;;14.60;99.90;;;;;;6096014;23;20041;-83
2021/05/16 11:51:42;;;;;;;6.20;1.20;;;14.60;99.90;;;;;;6097653;23;20437;-83
2021/05/16 11:54:13;;;;;;;2.20;1.13;;;14.70;99.90;;;;;;6096833;23;20445;-83
2021/05/16 11:56:49;;;;;;;5.97;1.40;;;14.50;99.90;;;;;;6084197;23;20018;-84
2021/05/16 11:59:27;;;;;;;4.93;1.48;;;14.50;99.90;;;;;;6094935;23;20455;-83
2021/05/16 12:01:55;;;;;;;3.42;1.02;;;14.50;99.90;;;;;;6096011;23;20468;-84
2021/05/16 12:04:22;;;;;;;3.03;1.33;;;14.70;99.90;;;;;;6093532;23;20022;-83
2021/05/16 12:06:54;;;;;;;5.25;1.08;;;14.80;99.90;;;;;;6096391;23;20049;-83
2021/05/16 12:09:25;;;;;;;1.98;1.08;;;14.90;99.90;;;;;;6098977;23;20025;-83
2021/05/16 12:11:54;;;;;;;4.30;1.33;;;15.10;99.90;;;;;;6095944;23;20022;-84
2021/05/16 12:14:22;;;;;;;3.55;1.10;;;15.50;99.90;;;;;;6096124;23;20021;-83
2021/05/16 12:17:03;;;;;;;3.25;1.08;;;15.80;99.90;;;;;;6097667;23;20312;-84
2021/05/16 12:19:35;;;;;;;6.15;1.00;;;16.20;99.90;;;;;;6102293;23;20541;-84
2021/05/16 12:22:04;;;;;;;4.32;1.00;;;16.70;99.90;;;;;;6104882;23;20018;-84
2021/05/16 12:24:34;;;;;;;6.20;1.10;;;17.60;99.90;;;;;;6102816;23;20026;-83
2021/05/16 12:27:04;;;;;;;3.92;1.80;;;18.60;99.90;;;;;;6103573;23;20017;-84
2021/05/16 12:29:31;;;;;;;5.07;1.60;;;19.40;99.90;;;;;;6101855;23;20022;-84
2021/05/16 12:31:58;;;;;;;5.20;1.20;;;20.40;99.90;;;;;;6098861;23;20041;-84
2021/05/16 12:34:27;;;;;;;6.63;1.88;;;21.40;96.40;;;;;;6096729;23;20037;-84
2021/05/16 12:37:05;;;;;;;7.65;1.83;;;22.30;97.10;;;;;;6095130;23;20404;-84
2021/05/16 12:39:35;;;;;;;4.60;1.50;;;22.90;89.60;;;;;;6093263;23;20021;-84
2021/05/16 12:42:03;;;;;;;6.97;1.27;;;23.60;91.10;;;;;;6094951;23;20101;-84
2021/05/16 12:44:30;;;;;;;6.35;1.38;;;24.20;76.20;;;;;;6094406;23;20459;-84
2021/05/16 12:46:57;;;;;;;7.78;1.55;;;24.30;74.30;;;;;;6093223;23;20101;-84
2021/05/16 12:49:27;;;;;;;10.27;1.90;;;24.20;71.70;;;;;;6094335;23;20053;-84